createdAt,value
2022-08-19T00:02:16.183Z,14.80
2022-08-19T00:05:18.772Z,14.80
2022-08-19T00:08:20.850Z,14.70
2022-08-19T00:11:25.712Z,14.60
2022-08-19T00:14:28.719Z,14.50
2022-08-19T00:17:30.831Z,14.40
2022-08-19T00:20:32.916Z,14.20
2022-08-19T00:23:38.153Z,14.30
2022-08-19T00:26:40.576Z,14.30
2022-08-19T00:29:42.699Z,14.30
2022-08-19T00:32:44.886Z,14.20
2022-08-19T00:35:46.960Z,14.20
2022-08-19T00:38:58.288Z,14.00
2022-08-19T00:42:00.377Z,14.00
2022-08-19T00:45:02.560Z,13.80
2022-08-19T00:48:05.514Z,13.80
2022-08-19T00:51:17.143Z,13.80
2022-08-19T00:54:28.643Z,13.70
2022-08-19T00:57:41.423Z,13.60
2022-08-19T01:00:43.681Z,13.50
2022-08-19T01:03:57.783Z,13.50
2022-08-19T01:07:02.528Z,13.50
2022-08-19T01:10:06.115Z,13.40
2022-08-19T01:13:08.279Z,13.50
2022-08-19T01:16:12.872Z,13.40
2022-08-19T01:19:30.775Z,13.30
2022-08-19T01:22:54.866Z,13.20
2022-08-19T01:25:57.624Z,13.10
2022-08-19T01:29:02.156Z,13.10
2022-08-19T01:32:09.087Z,13.00
2022-08-19T01:35:32.480Z,13.00
2022-08-19T01:38:38.103Z,12.70
2022-08-19T01:41:47.737Z,12.70
2022-08-19T01:44:49.979Z,12.60
2022-08-19T01:48:01.635Z,12.50
2022-08-19T01:51:05.098Z,12.40
2022-08-19T01:54:08.952Z,12.30
2022-08-19T01:57:13.278Z,12.40
2022-08-19T02:00:16.876Z,12.40
2022-08-19T02:03:18.979Z,12.60
2022-08-19T02:06:21.236Z,12.70
2022-08-19T02:09:29.308Z,12.70
2022-08-19T02:12:31.443Z,12.80
2022-08-19T02:15:33.573Z,12.80
2022-08-19T02:18:35.654Z,12.80
2022-08-19T02:21:38.528Z,12.80
2022-08-19T02:24:40.608Z,12.70
2022-08-19T02:27:43.131Z,12.70
2022-08-19T02:30:45.335Z,12.70
2022-08-19T02:33:48.067Z,12.60
2022-08-19T02:36:51.779Z,12.50
2022-08-19T02:39:54.222Z,12.60
2022-08-19T02:42:56.618Z,12.60
2022-08-19T02:45:58.765Z,12.70
2022-08-19T02:49:03.656Z,12.70
2022-08-19T02:52:05.838Z,12.80
2022-08-19T02:55:08.779Z,12.70
2022-08-19T02:58:10.930Z,12.70
2022-08-19T03:01:25.001Z,12.70
2022-08-19T03:04:27.259Z,12.70
2022-08-19T03:07:29.334Z,12.60
2022-08-19T03:10:31.423Z,12.40
2022-08-19T03:13:33.821Z,12.30
2022-08-19T03:16:46.235Z,12.10
2022-08-19T03:19:48.319Z,12.10
2022-08-19T03:22:50.392Z,12.20
2022-08-19T03:25:59.215Z,12.20
2022-08-19T03:29:30.272Z,12.20
2022-08-19T03:32:33.396Z,12.10
2022-08-19T03:35:37.699Z,12.00
2022-08-19T03:38:44.443Z,11.90
2022-08-19T03:41:48.432Z,12.00
2022-08-19T03:44:50.759Z,12.00
2022-08-19T03:47:53.091Z,12.10
2022-08-19T03:50:56.292Z,12.10
2022-08-19T03:53:59.975Z,12.10
2022-08-19T03:57:02.122Z,12.00
2022-08-19T04:00:13.640Z,12.00
2022-08-19T04:03:16.514Z,12.00
2022-08-19T04:06:22.494Z,11.90
2022-08-19T04:09:24.787Z,11.90
2022-08-19T04:12:26.883Z,11.80
2022-08-19T04:15:32.266Z,11.80
2022-08-19T04:18:36.432Z,11.70
2022-08-19T04:21:38.660Z,11.80
2022-08-19T04:24:40.770Z,11.70
2022-08-19T04:27:47.283Z,11.80
2022-08-19T04:30:52.527Z,11.80
2022-08-19T04:34:00.426Z,11.80
2022-08-19T04:37:02.634Z,11.80
2022-08-19T04:40:25.302Z,11.70
2022-08-19T04:43:27.663Z,11.80
2022-08-19T04:46:40.213Z,11.80
2022-08-19T04:49:53.232Z,11.90
2022-08-19T04:52:56.853Z,11.80
2022-08-19T04:56:13.630Z,11.80
2022-08-19T04:59:16.965Z,11.80
2022-08-19T05:02:19.112Z,11.80
2022-08-19T05:05:21.838Z,11.80
2022-08-19T05:08:30.942Z,11.50
2022-08-19T05:11:36.122Z,11.50
2022-08-19T05:14:38.206Z,11.60
2022-08-19T05:18:00.222Z,11.70
2022-08-19T05:21:30.123Z,11.80
2022-08-19T05:24:35.190Z,11.80
2022-08-19T05:27:37.993Z,11.70
2022-08-19T05:30:47.133Z,11.50
2022-08-19T05:33:51.021Z,11.50
2022-08-19T05:36:57.989Z,11.40
2022-08-19T05:40:00.254Z,11.40
2022-08-19T05:43:03.083Z,11.50
2022-08-19T05:46:07.747Z,11.70
2022-08-19T05:49:09.916Z,11.70
2022-08-19T05:52:14.383Z,11.80
2022-08-19T05:55:21.358Z,11.80
2022-08-19T05:58:23.480Z,11.80
2022-08-19T06:01:30.309Z,11.80
2022-08-19T06:04:32.433Z,11.80
2022-08-19T06:10:37.935Z,11.70
2022-08-19T06:13:40.023Z,11.70
2022-08-19T06:16:42.884Z,11.80
2022-08-19T06:19:44.970Z,11.80
2022-08-19T06:22:50.137Z,11.90
2022-08-19T06:25:52.231Z,12.10
2022-08-19T06:28:54.304Z,12.20
2022-08-19T06:31:57.774Z,12.30
2022-08-19T06:34:59.849Z,12.30
2022-08-19T06:38:01.939Z,12.40
2022-08-19T06:41:07.266Z,12.60
2022-08-19T06:44:13.131Z,12.70
2022-08-19T06:47:23.758Z,12.90
2022-08-19T06:50:27.299Z,13.00
2022-08-19T06:53:30.468Z,13.10
2022-08-19T06:56:35.638Z,13.20
2022-08-19T06:59:37.871Z,13.30
2022-08-19T07:02:42.628Z,13.50
2022-08-19T07:05:46.330Z,13.60
2022-08-19T07:08:49.287Z,13.80
2022-08-19T07:11:53.469Z,14.00
2022-08-19T07:14:55.559Z,14.00
2022-08-19T07:17:57.658Z,13.90
2022-08-19T07:21:25.295Z,13.90
2022-08-19T07:24:33.683Z,13.80
2022-08-19T07:27:36.070Z,13.70
2022-08-19T07:30:38.951Z,13.70
2022-08-19T07:33:41.991Z,13.80
2022-08-19T07:36:45.756Z,13.90
2022-08-19T07:39:47.908Z,14.10
2022-08-19T07:42:50.035Z,14.10
2022-08-19T07:45:58.189Z,14.20
2022-08-19T07:49:01.438Z,14.40
2022-08-19T07:52:07.842Z,14.60
2022-08-19T07:55:40.284Z,14.70
2022-08-19T07:58:36.274Z,14.90
2022-08-19T08:01:41.485Z,14.90
2022-08-19T08:05:02.820Z,14.90
2022-08-19T08:08:23.830Z,15.10
2022-08-19T08:11:29.893Z,15.20
2022-08-19T08:14:36.283Z,15.10
2022-08-19T08:17:49.781Z,15.10
2022-08-19T08:20:53.859Z,14.90
2022-08-19T08:23:56.745Z,14.90
2022-08-19T08:27:00.062Z,14.90
2022-08-19T08:30:03.002Z,14.90
2022-08-19T08:33:05.736Z,15.30
2022-08-19T08:36:09.004Z,15.80
2022-08-19T08:39:11.503Z,15.50
2022-08-19T08:42:24.291Z,15.50
2022-08-19T08:45:26.604Z,15.50
2022-08-19T08:48:59.268Z,15.30
2022-08-19T08:52:10.918Z,15.30
2022-08-19T08:55:36.840Z,15.40
2022-08-19T08:58:59.582Z,15.50
2022-08-19T09:02:02.178Z,15.60
2022-08-19T09:05:05.101Z,15.90
2022-08-19T09:08:14.904Z,15.90
2022-08-19T09:11:44.488Z,15.90
2022-08-19T09:14:52.500Z,16.20
2022-08-19T09:17:54.802Z,16.50
2022-08-19T09:20:57.791Z,16.30
2022-08-19T09:24:00.209Z,16.70
2022-08-19T09:27:06.691Z,16.90
2022-08-19T09:30:24.816Z,16.90
2022-08-19T09:33:27.069Z,16.60
2022-08-19T09:36:34.670Z,16.40
2022-08-19T09:39:37.309Z,16.20
2022-08-19T09:42:50.334Z,16.20
2022-08-19T09:45:54.868Z,16.20
2022-08-19T09:49:02.947Z,16.00
2022-08-19T09:52:13.537Z,16.30
2022-08-19T09:55:17.043Z,16.30
2022-08-19T09:58:24.663Z,16.30
2022-08-19T10:01:30.340Z,16.40
2022-08-19T10:04:50.972Z,16.30
2022-08-19T10:07:53.178Z,16.30
2022-08-19T10:10:56.050Z,16.50
2022-08-19T10:13:58.196Z,16.90
2022-08-19T10:17:01.367Z,17.30
2022-08-19T10:20:19.748Z,17.10
2022-08-19T10:23:22.462Z,17.80
2022-08-19T10:26:28.648Z,17.80
2022-08-19T10:29:33.543Z,18.30
2022-08-19T10:32:35.659Z,18.40
2022-08-19T10:35:42.716Z,17.90
2022-08-19T10:39:01.643Z,17.60
2022-08-19T10:42:08.035Z,17.60
2022-08-19T10:45:11.265Z,17.60
2022-08-19T10:48:15.643Z,17.50
2022-08-19T10:51:47.873Z,17.30
2022-08-19T10:55:09.229Z,17.20
2022-08-19T10:58:23.489Z,17.60
2022-08-19T11:01:27.676Z,18.00
2022-08-19T11:04:29.831Z,17.90
2022-08-19T11:07:31.998Z,17.90
2022-08-19T11:10:34.078Z,17.50
2022-08-19T11:13:39.176Z,17.40
2022-08-19T11:16:42.299Z,17.10
2022-08-19T11:19:44.411Z,17.20
2022-08-19T11:22:46.643Z,17.50
2022-08-19T11:25:51.041Z,17.40
2022-08-19T11:28:55.379Z,17.30
2022-08-19T11:31:57.530Z,17.40
2022-08-19T11:34:59.615Z,17.60
2022-08-19T11:38:02.405Z,18.20
2022-08-19T11:41:06.883Z,18.10
2022-08-19T11:44:09.063Z,17.60
2022-08-19T11:47:11.131Z,17.60
2022-08-19T11:50:13.244Z,17.90
2022-08-19T11:53:15.327Z,17.70
2022-08-19T11:56:17.747Z,18.10
2022-08-19T11:59:19.840Z,18.20
2022-08-19T12:02:22.702Z,18.20
2022-08-19T12:05:24.833Z,18.60
2022-08-19T12:08:27.030Z,18.90
2022-08-19T12:11:29.336Z,18.90
2022-08-19T12:14:36.779Z,19.20
2022-08-19T12:17:38.964Z,19.20
2022-08-19T12:20:42.167Z,19.20
2022-08-19T12:23:45.983Z,20.10
2022-08-19T12:26:52.465Z,19.80
2022-08-19T12:29:55.645Z,18.80
2022-08-19T12:32:58.253Z,18.80
2022-08-19T12:36:06.273Z,18.70
2022-08-19T12:39:10.694Z,19.20
2022-08-19T12:42:14.908Z,19.60
2022-08-19T12:45:17.096Z,19.20
2022-08-19T12:48:33.368Z,19.90
2022-08-19T12:51:36.854Z,19.80
2022-08-19T12:54:38.944Z,20.10
2022-08-19T12:57:41.238Z,19.90
2022-08-19T13:00:43.366Z,20.00
2022-08-19T13:03:48.490Z,20.50
2022-08-19T13:06:52.810Z,20.50
2022-08-19T13:09:54.899Z,19.60
2022-08-19T13:12:57.747Z,19.70
2022-08-19T13:16:04.111Z,19.70
2022-08-19T13:19:06.280Z,20.20
2022-08-19T13:22:13.234Z,19.90
2022-08-19T13:25:18.604Z,20.10
2022-08-19T13:28:20.677Z,19.20
2022-08-19T13:31:52.896Z,18.90
2022-08-19T13:34:54.970Z,18.50
2022-08-19T13:37:57.114Z,18.30
2022-08-19T13:41:09.960Z,18.90
2022-08-19T13:44:14.881Z,18.90
2022-08-19T13:47:17.372Z,18.80
2022-08-19T13:50:22.700Z,18.80
2022-08-19T13:53:25.587Z,18.80
2022-08-19T13:56:27.722Z,18.80
2022-08-19T13:59:29.831Z,19.00
2022-08-19T14:02:31.949Z,18.70
2022-08-19T14:05:34.082Z,18.40
2022-08-19T14:08:44.213Z,18.50
2022-08-19T14:11:48.071Z,18.60
2022-08-19T14:14:50.367Z,19.80
2022-08-19T14:17:52.652Z,20.10
2022-08-19T14:20:56.479Z,20.10
2022-08-19T14:23:59.122Z,20.00
2022-08-19T14:27:01.451Z,19.90
2022-08-19T14:30:08.756Z,21.40
2022-08-19T14:33:10.898Z,22.00
2022-08-19T14:36:13.005Z,21.10
2022-08-19T14:39:15.113Z,19.60
2022-08-19T14:42:17.264Z,18.70
2022-08-19T14:45:19.599Z,18.70
2022-08-19T14:48:22.550Z,18.60
2022-08-19T14:51:31.438Z,18.30
2022-08-19T14:54:33.551Z,18.10
2022-08-19T14:57:35.669Z,18.20
2022-08-19T15:00:37.825Z,19.00
2022-08-19T15:03:41.414Z,19.30
2022-08-19T15:06:43.530Z,18.80
2022-08-19T15:09:45.626Z,19.70
2022-08-19T15:12:51.720Z,20.20
2022-08-19T15:15:54.708Z,19.10
2022-08-19T15:18:57.998Z,18.60
2022-08-19T15:22:00.208Z,18.40
2022-08-19T15:25:02.803Z,18.00
2022-08-19T15:28:04.944Z,17.70
2022-08-19T15:31:07.092Z,17.70
2022-08-19T15:34:09.275Z,18.70
2022-08-19T15:37:11.374Z,18.40
2022-08-19T15:40:13.583Z,17.50
2022-08-19T15:43:17.045Z,17.70
2022-08-19T15:46:21.972Z,17.50
2022-08-19T15:49:24.073Z,17.40
2022-08-19T15:52:27.256Z,17.20
2022-08-19T15:55:34.680Z,17.00
2022-08-19T15:58:55.991Z,16.90
2022-08-19T16:02:16.827Z,17.20
2022-08-19T16:05:43.327Z,17.70
2022-08-19T16:08:48.851Z,18.30
2022-08-19T16:11:56.906Z,18.40
2022-08-19T16:15:01.879Z,18.90
2022-08-19T16:18:04.688Z,18.20
2022-08-19T16:21:08.129Z,18.00
2022-08-19T16:24:13.078Z,17.60
2022-08-19T16:27:16.095Z,17.40
2022-08-19T16:30:18.377Z,17.20
2022-08-19T16:33:22.793Z,17.20
2022-08-19T16:36:25.550Z,17.10
2022-08-19T16:39:28.320Z,17.30
2022-08-19T16:42:30.458Z,18.70
2022-08-19T16:45:32.588Z,18.60
2022-08-19T16:48:35.014Z,19.10
2022-08-19T16:51:38.455Z,20.20
2022-08-19T16:54:40.649Z,21.10
2022-08-19T16:57:45.486Z,21.30
2022-08-19T17:00:48.688Z,21.20
2022-08-19T17:03:52.694Z,20.90
2022-08-19T17:06:54.824Z,21.40
2022-08-19T17:09:57.148Z,21.40
2022-08-19T17:13:00.040Z,21.20
2022-08-19T17:16:02.391Z,21.00
2022-08-19T17:19:06.911Z,20.80
2022-08-19T17:22:11.390Z,19.30
2022-08-19T17:25:13.701Z,18.50
2022-08-19T17:28:19.018Z,17.80
2022-08-19T17:31:23.694Z,17.40
2022-08-19T17:34:25.844Z,17.70
2022-08-19T17:37:28.279Z,17.40
2022-08-19T17:40:30.655Z,17.80
2022-08-19T17:43:37.053Z,18.50
2022-08-19T17:46:41.080Z,19.20
2022-08-19T17:49:43.179Z,19.10
2022-08-19T17:52:45.251Z,19.30
2022-08-19T17:55:48.123Z,18.80
2022-08-19T17:58:57.614Z,18.50
2022-08-19T18:02:02.418Z,18.70
2022-08-19T18:05:06.146Z,17.20
2022-08-19T18:08:09.562Z,17.10
2022-08-19T18:11:11.728Z,17.90
2022-08-19T18:14:14.107Z,18.50
2022-08-19T18:17:18.079Z,18.00
2022-08-19T18:20:20.350Z,18.20
2022-08-19T18:23:41.334Z,18.30
2022-08-19T18:26:45.198Z,17.90
2022-08-19T18:29:47.326Z,17.40
2022-08-19T18:32:52.680Z,17.20
2022-08-19T18:35:54.759Z,17.10
2022-08-19T18:39:15.411Z,16.70
2022-08-19T18:42:37.175Z,16.70
2022-08-19T18:45:58.575Z,16.00
2022-08-19T18:49:06.836Z,15.50
2022-08-19T18:52:09.044Z,15.30
2022-08-19T18:55:11.699Z,15.30
2022-08-19T18:58:13.895Z,15.30
2022-08-19T19:01:22.157Z,15.30
2022-08-19T19:04:28.043Z,15.30
2022-08-19T19:07:30.133Z,15.20
2022-08-19T19:10:32.232Z,15.20
2022-08-19T19:13:35.150Z,15.10
2022-08-19T19:16:41.913Z,15.10
2022-08-19T19:19:45.785Z,15.10
2022-08-19T19:22:47.990Z,15.10
2022-08-19T19:25:51.387Z,15.10
2022-08-19T19:28:54.898Z,15.10
2022-08-19T19:32:07.031Z,15.00
2022-08-19T19:35:10.707Z,15.10
2022-08-19T19:38:12.828Z,15.00
2022-08-19T19:41:16.263Z,14.90
2022-08-19T19:44:30.875Z,14.90
2022-08-19T19:47:34.695Z,14.90
2022-08-19T19:50:36.959Z,14.90
2022-08-19T19:53:39.300Z,14.80
2022-08-19T19:56:45.004Z,14.80
2022-08-19T19:59:51.433Z,14.70
2022-08-19T20:02:55.921Z,14.70
2022-08-19T20:05:59.303Z,14.80
2022-08-19T20:09:10.888Z,14.80
2022-08-19T20:12:13.022Z,14.80
2022-08-19T20:15:15.171Z,14.80
2022-08-19T20:18:17.330Z,14.80
2022-08-19T20:21:19.491Z,14.70
2022-08-19T20:24:27.562Z,14.70
2022-08-19T20:27:31.204Z,14.70
2022-08-19T20:30:39.560Z,14.80
2022-08-19T20:33:48.686Z,14.70
2022-08-19T20:36:50.853Z,14.60
2022-08-19T20:39:53.115Z,14.50
2022-08-19T20:42:55.589Z,14.50
2022-08-19T20:45:57.707Z,14.50
2022-08-19T20:49:00.123Z,14.50
2022-08-19T20:52:03.813Z,14.40
2022-08-19T20:55:06.527Z,14.40
2022-08-19T20:58:10.097Z,14.20
2022-08-19T21:01:13.678Z,14.10
2022-08-19T21:04:17.574Z,14.00
2022-08-19T21:07:19.725Z,13.90
2022-08-19T21:10:21.829Z,14.00
2022-08-19T21:13:24.123Z,13.90
2022-08-19T21:16:26.523Z,13.90
2022-08-19T21:19:28.814Z,14.00
2022-08-19T21:22:31.207Z,14.10
2022-08-19T21:25:33.571Z,14.20
2022-08-19T21:28:36.697Z,14.10
2022-08-19T21:31:38.972Z,14.10
2022-08-19T21:34:43.819Z,14.10
2022-08-19T21:37:48.622Z,14.00
2022-08-19T21:40:51.299Z,14.00
2022-08-19T21:43:53.962Z,14.00
2022-08-19T21:46:56.250Z,13.90
2022-08-19T21:49:58.392Z,13.80
2022-08-19T21:53:01.166Z,13.70
2022-08-19T21:56:06.810Z,13.60
2022-08-19T21:59:08.932Z,13.70
2022-08-19T22:02:20.994Z,13.80
2022-08-19T22:05:24.655Z,13.70
2022-08-19T22:08:27.307Z,13.60
2022-08-19T22:11:30.016Z,13.70
2022-08-19T22:14:33.699Z,13.60
2022-08-19T22:17:36.555Z,13.50
2022-08-19T22:20:38.799Z,13.40
2022-08-19T22:23:42.111Z,13.40
2022-08-19T22:26:44.190Z,13.40
2022-08-19T22:29:46.319Z,13.30
2022-08-19T22:32:56.165Z,13.30
2022-08-19T22:35:58.795Z,13.40
2022-08-19T22:39:00.899Z,13.30
2022-08-19T22:42:03.036Z,13.20
2022-08-19T22:45:10.368Z,13.10
2022-08-19T22:48:14.171Z,13.00
2022-08-19T22:51:35.221Z,13.20
2022-08-19T22:54:37.300Z,13.40
2022-08-19T22:57:40.018Z,13.50
2022-08-19T23:00:42.180Z,13.50
2022-08-19T23:03:44.294Z,13.50
2022-08-19T23:06:46.417Z,13.40
2022-08-19T23:09:48.590Z,13.50
2022-08-19T23:12:50.774Z,13.40
2022-08-19T23:15:53.766Z,13.50
2022-08-19T23:18:56.142Z,13.30
2022-08-19T23:21:58.765Z,13.20
2022-08-19T23:25:10.268Z,13.20
2022-08-19T23:28:31.107Z,13.00
2022-08-19T23:31:33.240Z,13.00
2022-08-19T23:34:35.369Z,13.00
2022-08-19T23:37:37.684Z,13.10
2022-08-19T23:40:39.958Z,13.30
2022-08-19T23:43:42.117Z,13.30
2022-08-19T23:46:55.174Z,13.20
2022-08-19T23:49:58.143Z,13.20
2022-08-19T23:53:00.446Z,13.10
2022-08-19T23:56:02.581Z,13.10
2022-08-19T23:59:05.474Z,13.00
